SBMOSBAR

Guest
Details From SBMO - Zumbi Dos Palmares
To SBAR - SANTA MARIA
Flight Number -
Tags generated
Created
Modified
Stats Distance 116 nm / 215 km
Max Altitude 12,400 ft / 3,780 m
Waypoints 3
Social Downloads 0
Likes 0
Share VATSIM

Download

Looking for another format? Having issues loading an existing format? Contact us
Advertisement - Login to hide

Notes

Basic altitude profile: - Ascent Rate: 2500ft/min - Ascent Speed: 250kts - Cruise Altitude: 35000ft - Cruise Speed: 420kts - Descent Rate: 1500ft/min - Descent Speed: 250kts Options: - Use NATs: yes - Use PACOTS: yes - Use low airways: yes - Use high airways: yes

Route

SBMO DENDO SBAR

ID Type Via Altitude Latitude Longitude Leg Dist Tot Dist Heading (true) Name
O SBMO APT - 0 ft / 0 m -9.51081˚ -35.79168˚ - 0 nm - Zumbi Dos Palmares
DENDO FIX - 12,400 ft / 3,780 m -10.24683˚ -36.42950˚ 58 nm 58 nm 220° / 221° -
O SBAR APT - 0 ft / 0 m -10.98400˚ -37.07033˚ 58 nm 116 nm 220° / 221° SANTA MARIA

Altitude Profile

Advertisement - Login to hide

SBMO

Details ICAO SBMO (MCZ)
Name Zumbi Dos Palmares
Region Brazil
Timezone America/Maceio (UTC-3.0)
Stats Elevation 387 ft / 118 m (AMSL)
Location -9.510808° -35.791677°
Runways 1
Magnetic Variation 22.592° W

METAR

Not found

TAF

TAF SBMO 272200Z 2800/2824 11005KT 8000 SCT020 TN21/2807Z TX27/2818Z BECMG 2802/2803 30004KT TEMPO 2809/2811 5000 RA BR BKN012 BECMG 2811/2812 13009KT BKN020 BECMG 2814/2816 SCT020 RMK PEA

Decode

Departure Runways

ID Width Length Bearing (true) Bearing (mag) Surface Threshold Offset Overrun Length
12 148 ft / 45 m 8,528 ft / 2,599 m 100.73° 123.32° Asphalt 0 ft / 0 m 210 ft / 64 m
30 148 ft / 45 m 8,528 ft / 2,599 m 280.73° 303.32° Asphalt 0 ft / 0 m 210 ft / 64 m

SBAR

Details ICAO SBAR (AJU)
Name SANTA MARIA
Region Brazil
Timezone America/Maceio (UTC-3.0)
Stats Elevation 23 ft / 7 m (AMSL)
Location -10.984000° -37.070333°
Runways 1
Magnetic Variation 23.050° W

METAR

Not found

TAF

TAF SBAR 272200Z 2800/2812 12008KT 8000 SCT017 TX27/2800Z TN25/2807Z PROB30 TEMPO 2806/2808 5000 SHRA SCT012 BKN015 RMK PEA

Decode

Destination Runways

ID Width Length Bearing (true) Bearing (mag) Surface Threshold Offset Overrun Length
11 148 ft / 45 m 7,228 ft / 2,203 m 91.93° 114.98° Asphalt 0 ft / 0 m 200 ft / 61 m
29 148 ft / 45 m 7,228 ft / 2,203 m 271.92° 294.97° Asphalt 0 ft / 0 m 200 ft / 61 m

Popular Alternatives